Time;durP1;ratioP1;P1;durP2;ratioP2;P2;SDS_P1;SDS_P2;PMS_P1;PMS_P2;Temp;Humidity;BMP_temperature;BMP_pressure;BME280_temperature;BME280_humidity;BME280_pressure;Samples;Min_cycle;Max_cycle;Signal;HPM_P1;HPM_P2
2021/06/19 00:02:00;;;;;;;8.87;7.90;;;26.90;1.00;;;;;;5097741;28;20579;-70
2021/06/19 00:04:30;;;;;;;8.47;7.70;;;26.90;1.00;;;;;;5097905;28;20483;-70
2021/06/19 00:06:56;;;;;;;11.00;7.77;;;26.90;1.00;;;;;;5097833;28;20468;-70
2021/06/19 00:09:23;;;;;;;9.23;8.53;;;26.80;1.00;;;;;;5097662;28;20779;-70
2021/06/19 00:11:51;;;;;;;8.50;7.83;;;26.80;1.00;;;;;;5097314;28;20473;-70
2021/06/19 00:14:18;;;;;;;9.17;8.27;;;26.80;1.00;;;;;;5097897;28;20469;-70
2021/06/19 00:16:45;;;;;;;8.30;7.53;;;26.80;1.00;;;;;;5097425;28;20465;-70
2021/06/19 00:19:11;;;;;;;9.23;8.33;;;26.70;1.00;;;;;;5097922;28;20480;-70
2021/06/19 00:21:42;;;;;;;8.20;7.50;;;26.70;1.00;;;;;;5097927;28;20510;-70
2021/06/19 00:24:09;;;;;;;8.67;7.83;;;26.70;1.00;;;;;;5097667;28;20502;-70
2021/06/19 00:26:36;;;;;;;8.90;8.20;;;26.70;1.00;;;;;;5097279;28;20465;-69
2021/06/19 00:29:06;;;;;;;8.90;8.03;;;26.60;1.00;;;;;;5097222;28;20485;-70
2021/06/19 00:31:33;;;;;;;9.27;8.47;;;26.60;1.00;;;;;;5097701;28;20511;-69
2021/06/19 00:33:59;;;;;;;9.77;8.77;;;26.50;1.00;;;;;;5097217;28;20468;-71
2021/06/19 00:36:26;;;;;;;9.63;8.50;;;26.50;1.00;;;;;;5097251;28;20457;-69
2021/06/19 00:38:53;;;;;;;8.90;8.20;;;26.50;1.00;;;;;;5097056;28;20461;-69
2021/06/19 00:41:19;;;;;;;13.37;12.17;;;26.50;1.00;;;;;;5096868;28;20450;-69
2021/06/19 00:43:46;;;;;;;10.27;9.27;;;26.40;1.00;;;;;;5096526;28;20476;-69
2021/06/19 00:46:14;;;;;;;8.63;7.83;;;26.40;1.00;;;;;;5096420;28;20485;-70
2021/06/19 00:48:41;;;;;;;8.40;7.47;;;26.40;1.00;;;;;;5096357;28;20453;-70
2021/06/19 00:51:08;;;;;;;8.00;7.30;;;26.30;1.00;;;;;;5096036;28;20464;-70
2021/06/19 00:53:34;;;;;;;8.60;7.90;;;26.30;1.00;;;;;;5096255;28;20453;-70
2021/06/19 00:56:01;;;;;;;9.63;8.80;;;26.30;1.00;;;;;;5096431;28;20461;-70
2021/06/19 00:58:29;;;;;;;10.13;9.33;;;26.20;1.00;;;;;;5096375;28;20453;-70
2021/06/19 01:00:56;;;;;;;9.23;8.30;;;26.20;1.00;;;;;;5095994;28;20457;-70
2021/06/19 01:03:24;;;;;;;12.93;8.27;;;26.10;1.00;;;;;;5096431;28;20460;-70
2021/06/19 01:05:51;;;;;;;8.63;7.70;;;26.10;1.00;;;;;;5095966;28;20453;-70
2021/06/19 01:08:18;;;;;;;10.40;9.30;;;26.10;1.00;;;;;;5096116;28;20548;-70
2021/06/19 01:10:45;;;;;;;10.13;8.20;;;26.10;1.00;;;;;;5096206;28;20472;-70
2021/06/19 01:13:11;;;;;;;9.73;8.80;;;26.10;1.00;;;;;;5096230;28;20577;-70
2021/06/19 01:15:38;;;;;;;9.07;8.27;;;26.00;1.00;;;;;;5096578;28;20468;-70
2021/06/19 01:18:05;;;;;;;8.27;7.57;;;25.90;1.00;;;;;;5096086;28;20905;-70
2021/06/19 01:20:37;;;;;;;8.30;7.70;;;25.90;1.00;;;;;;5096344;28;20468;-70
2021/06/19 01:23:05;;;;;;;9.60;8.70;;;25.90;1.00;;;;;;5095820;28;20867;-70
2021/06/19 01:25:34;;;;;;;8.90;8.10;;;25.80;1.00;;;;;;5096230;28;20454;-70
2021/06/19 01:28:07;;;;;;;9.17;8.37;;;25.80;1.00;;;;;;5096107;28;20462;-70
2021/06/19 01:30:34;;;;;;;9.00;8.17;;;25.80;1.00;;;;;;5096207;28;20442;-70
2021/06/19 01:33:01;;;;;;;9.13;8.23;;;25.70;1.00;;;;;;5095923;28;20491;-70
2021/06/19 01:35:28;;;;;;;9.40;8.47;;;25.70;1.00;;;;;;5095842;28;20530;-70
2021/06/19 01:37:57;;;;;;;9.40;8.60;;;25.70;1.00;;;;;;5096059;28;20460;-70
2021/06/19 01:40:25;;;;;;;9.70;8.70;;;25.70;1.00;;;;;;5095495;28;20457;-70
2021/06/19 01:42:54;;;;;;;9.33;8.37;;;25.70;1.00;;;;;;5095813;28;20449;-70
2021/06/19 01:45:23;;;;;;;8.93;8.03;;;25.60;1.00;;;;;;5095997;28;20465;-70
2021/06/19 01:47:50;;;;;;;9.00;8.27;;;25.60;1.00;;;;;;5095749;28;20478;-70
2021/06/19 01:50:20;;;;;;;8.77;8.10;;;25.60;1.00;;;;;;5095540;28;20457;-70
2021/06/19 01:52:47;;;;;;;8.70;7.90;;;25.60;1.00;;;;;;5096030;28;20822;-70
2021/06/19 01:55:15;;;;;;;9.10;8.27;;;25.50;1.00;;;;;;5095869;28;20453;-70
2021/06/19 01:57:41;;;;;;;9.47;8.57;;;25.50;1.00;;;;;;5095767;28;20453;-71
2021/06/19 02:00:17;;;;;;;9.20;8.50;;;25.40;1.00;;;;;;5095558;28;20460;-70
2021/06/19 02:02:44;;;;;;;9.00;8.23;;;25.40;1.00;;;;;;5094959;28;20758;-70
2021/06/19 02:05:13;;;;;;;9.17;8.37;;;25.40;1.00;;;;;;5095269;28;20903;-70
2021/06/19 02:07:48;;;;;;;8.60;7.80;;;25.40;1.00;;;;;;5095184;28;20460;-70
2021/06/19 02:10:16;;;;;;;8.83;8.07;;;25.30;1.00;;;;;;5095748;28;20901;-70
2021/06/19 02:12:43;;;;;;;9.40;8.60;;;25.30;1.00;;;;;;5095230;28;20473;-70
2021/06/19 02:15:12;;;;;;;8.07;7.43;;;25.30;1.00;;;;;;5095074;28;20454;-70
2021/06/19 02:17:39;;;;;;;8.87;8.03;;;25.30;1.00;;;;;;5095133;28;20803;-70
2021/06/19 02:20:07;;;;;;;8.50;7.80;;;25.20;1.00;;;;;;5094748;28;20468;-70
2021/06/19 02:22:35;;;;;;;9.03;8.17;;;25.20;1.00;;;;;;5095086;28;20449;-70
2021/06/19 02:25:03;;;;;;;9.70;8.80;;;25.20;1.00;;;;;;5095040;28;20449;-70
2021/06/19 02:27:30;;;;;;;9.73;8.57;;;25.10;1.00;;;;;;5094650;28;20461;-70
2021/06/19 02:29:56;;;;;;;8.60;7.90;;;25.10;1.00;;;;;;5094658;28;20465;-70
2021/06/19 02:32:24;;;;;;;9.10;8.30;;;25.10;1.00;;;;;;5094870;28;20481;-70
2021/06/19 02:34:51;;;;;;;8.47;7.77;;;25.10;1.00;;;;;;5094599;28;20472;-70
2021/06/19 02:37:19;;;;;;;10.80;8.53;;;25.10;1.00;;;;;;5094570;28;20950;-70
2021/06/19 02:39:50;;;;;;;9.27;8.37;;;25.10;1.00;;;;;;5094854;28;20472;-71
2021/06/19 02:42:16;;;;;;;9.43;8.60;;;25.10;1.00;;;;;;5094848;28;20453;-70
2021/06/19 02:44:43;;;;;;;8.60;7.77;;;25.10;1.00;;;;;;5094926;28;20796;-70
2021/06/19 02:47:10;;;;;;;9.10;8.23;;;25.10;1.00;;;;;;5094521;28;20491;-70
2021/06/19 02:49:38;;;;;;;9.30;8.50;;;25.10;1.00;;;;;;5095022;28;20560;-70
2021/06/19 02:52:05;;;;;;;9.40;8.50;;;25.10;1.00;;;;;;5094759;28;20477;-70
2021/06/19 02:54:31;;;;;;;8.83;8.13;;;25.10;1.00;;;;;;5094678;28;20457;-70
2021/06/19 02:56:58;;;;;;;8.77;8.07;;;25.10;1.00;;;;;;5094240;28;20548;-70
2021/06/19 02:59:25;;;;;;;8.93;8.17;;;25.10;1.00;;;;;;5094846;28;20483;-70
2021/06/19 03:01:52;;;;;;;9.40;8.60;;;25.10;1.00;;;;;;5094371;28;20782;-70
2021/06/19 03:04:20;;;;;;;9.00;8.30;;;25.10;1.00;;;;;;5094756;28;20464;-70
2021/06/19 03:06:48;;;;;;;9.60;8.70;;;25.10;1.00;;;;;;5094625;28;20492;-70
2021/06/19 03:09:15;;;;;;;9.33;8.20;;;25.10;1.00;;;;;;5094302;28;20910;-70
2021/06/19 03:11:42;;;;;;;9.33;8.53;;;25.10;1.00;;;;;;5094485;28;20464;-70
2021/06/19 03:14:08;;;;;;;9.03;8.23;;;25.00;1.00;;;;;;5095364;28;20467;-70
2021/06/19 03:16:35;;;;;;;8.67;7.93;;;25.00;1.00;;;;;;5098255;28;20918;-70
2021/06/19 03:19:02;;;;;;;8.40;7.60;;;25.00;1.00;;;;;;5098728;28;20459;-70
2021/06/19 03:21:29;;;;;;;9.80;8.93;;;24.90;1.00;;;;;;5098586;28;20457;-70
2021/06/19 03:23:57;;;;;;;10.47;8.40;;;24.90;1.00;;;;;;5098649;28;20777;-70
2021/06/19 03:26:24;;;;;;;10.50;9.53;;;24.90;1.00;;;;;;5098408;28;20460;-70
2021/06/19 03:28:51;;;;;;;9.50;8.80;;;24.90;1.00;;;;;;5098307;28;20465;-70
2021/06/19 03:31:20;;;;;;;9.40;8.57;;;24.90;1.00;;;;;;5098314;28;20463;-70
2021/06/19 03:33:47;;;;;;;9.93;8.87;;;24.90;1.00;;;;;;5098171;28;20493;-70
2021/06/19 03:36:13;;;;;;;9.63;8.77;;;24.90;1.00;;;;;;5098236;28;20453;-70
2021/06/19 03:38:40;;;;;;;9.43;8.63;;;24.90;1.00;;;;;;5097983;28;20457;-70
2021/06/19 03:41:08;;;;;;;9.03;8.33;;;24.90;1.00;;;;;;5098152;28;20461;-70
2021/06/19 03:43:35;;;;;;;9.70;8.80;;;24.90;1.00;;;;;;5097912;28;20523;-70
2021/06/19 03:46:02;;;;;;;8.80;8.10;;;24.90;1.00;;;;;;5098229;28;20496;-70
2021/06/19 03:48:28;;;;;;;9.70;8.90;;;24.90;1.00;;;;;;5097878;28;20457;-70
2021/06/19 03:50:55;;;;;;;10.17;9.23;;;24.90;1.00;;;;;;5097676;28;20457;-70
2021/06/19 03:53:22;;;;;;;9.80;8.90;;;24.90;1.00;;;;;;5097836;28;20477;-70
2021/06/19 03:55:49;;;;;;;9.77;8.97;;;24.90;1.00;;;;;;5097872;28;20480;-70
2021/06/19 03:58:17;;;;;;;9.23;8.53;;;24.90;1.00;;;;;;5097654;28;20475;-71
2021/06/19 04:00:44;;;;;;;9.70;8.80;;;24.90;1.00;;;;;;5097508;28;20590;-70
2021/06/19 04:03:11;;;;;;;9.97;9.17;;;24.90;1.00;;;;;;5097514;28;20445;-70
2021/06/19 04:05:37;;;;;;;9.50;8.80;;;25.00;1.00;;;;;;5098101;28;20530;-70
2021/06/19 04:08:04;;;;;;;9.83;8.93;;;24.90;1.00;;;;;;5097703;28;20464;-70
2021/06/19 04:10:31;;;;;;;9.83;8.90;;;25.00;1.00;;;;;;5097690;28;20904;-71
2021/06/19 04:12:58;;;;;;;9.90;9.00;;;25.00;1.00;;;;;;5098375;28;20818;-70
2021/06/19 04:15:26;;;;;;;9.50;8.57;;;25.00;1.00;;;;;;5097941;28;20468;-70
2021/06/19 04:17:53;;;;;;;8.70;7.90;;;25.00;1.00;;;;;;5096945;28;20453;-70
2021/06/19 04:20:20;;;;;;;10.63;9.57;;;25.00;1.00;;;;;;5097299;28;20465;-70
2021/06/19 04:22:47;;;;;;;9.83;9.03;;;25.00;1.00;;;;;;5097305;28;20781;-71
2021/06/19 04:25:15;;;;;;;10.27;9.27;;;25.00;1.00;;;;;;5097328;28;20485;-70
2021/06/19 04:27:44;;;;;;;10.70;9.50;;;25.00;1.00;;;;;;5096789;28;20453;-70
2021/06/19 04:30:13;;;;;;;9.87;9.07;;;25.00;1.00;;;;;;5097118;28;20457;-70
2021/06/19 04:32:41;;;;;;;9.40;8.60;;;25.10;1.00;;;;;;5097260;28;20489;-70
2021/06/19 04:35:14;;;;;;;10.27;9.47;;;25.10;1.00;;;;;;5097305;28;20461;-70
2021/06/19 04:37:41;;;;;;;10.30;9.40;;;25.10;1.00;;;;;;5097047;28;20457;-70
2021/06/19 04:40:13;;;;;;;9.43;8.70;;;25.10;1.00;;;;;;5096975;28;20797;-70
2021/06/19 04:42:41;;;;;;;10.50;9.53;;;25.20;1.00;;;;;;5097002;28;20448;-70
2021/06/19 04:45:11;;;;;;;10.00;9.10;;;25.20;1.00;;;;;;5096975;28;20471;-70
2021/06/19 04:47:41;;;;;;;10.07;9.20;;;25.20;1.00;;;;;;5096763;28;20495;-70
2021/06/19 04:50:11;;;;;;;9.80;9.00;;;25.20;1.00;;;;;;5096919;28;20452;-70
2021/06/19 04:52:40;;;;;;;10.20;9.30;;;25.20;1.00;;;;;;5096872;28;20488;-70
2021/06/19 04:55:11;;;;;;;10.10;8.60;;;25.10;1.00;;;;;;5097082;28;20549;-70
2021/06/19 04:57:38;;;;;;;10.40;9.60;;;25.10;1.00;;;;;;5096594;28;20446;-70
2021/06/19 05:00:06;;;;;;;11.00;10.00;;;25.20;1.00;;;;;;5097123;28;20472;-70
2021/06/19 05:02:32;;;;;;;10.67;9.60;;;25.20;1.00;;;;;;5096263;28;20929;-70
2021/06/19 05:05:00;;;;;;;10.87;9.97;;;25.30;1.00;;;;;;5096764;28;20468;-70
2021/06/19 05:07:27;;;;;;;10.40;9.40;;;25.30;1.00;;;;;;5096750;28;20781;-70
2021/06/19 05:09:54;;;;;;;11.33;9.50;;;25.40;1.00;;;;;;5096533;28;20469;-70
2021/06/19 05:12:20;;;;;;;10.60;9.70;;;25.40;1.00;;;;;;5096314;28;20477;-70
2021/06/19 05:14:47;;;;;;;10.03;9.13;;;25.50;1.00;;;;;;5095867;28;20625;-71
2021/06/19 05:17:14;;;;;;;10.30;9.20;;;25.50;1.00;;;;;;5096384;28;20782;-70
2021/06/19 05:19:40;;;;;;;10.63;9.83;;;25.50;1.00;;;;;;5096218;28;20464;-70
2021/06/19 05:22:08;;;;;;;10.67;9.57;;;25.60;1.00;;;;;;5096096;28;20476;-70
2021/06/19 05:24:35;;;;;;;10.97;10.03;;;25.60;1.00;;;;;;5096170;28;20460;-70
2021/06/19 05:27:02;;;;;;;10.60;9.50;;;25.70;1.00;;;;;;5096222;28;20784;-70
2021/06/19 05:29:29;;;;;;;11.00;10.10;;;25.70;1.00;;;;;;5095595;28;20484;-70
2021/06/19 05:31:55;;;;;;;11.07;9.70;;;25.70;1.00;;;;;;5095958;28;20453;-70
2021/06/19 05:34:22;;;;;;;10.87;9.90;;;25.70;1.00;;;;;;5095692;28;20481;-70
2021/06/19 05:36:49;;;;;;;11.33;10.33;;;25.70;1.00;;;;;;5095872;28;20464;-70
2021/06/19 05:39:17;;;;;;;10.73;9.90;;;25.80;1.00;;;;;;5095055;28;20840;-69
2021/06/19 05:41:44;;;;;;;9.80;9.00;;;25.80;1.00;;;;;;5095901;28;20457;-69
2021/06/19 05:44:10;;;;;;;10.07;9.27;;;25.80;1.00;;;;;;5095750;28;20511;-70
2021/06/19 05:46:37;;;;;;;11.17;9.83;;;25.90;1.00;;;;;;5095464;28;20488;-70
2021/06/19 05:49:05;;;;;;;10.67;9.77;;;25.90;1.00;;;;;;5095549;28;20464;-70
2021/06/19 05:51:32;;;;;;;10.93;9.97;;;26.00;1.00;;;;;;5095510;28;20460;-70
2021/06/19 05:53:59;;;;;;;11.03;10.07;;;26.10;1.00;;;;;;5095776;28;20477;-70
2021/06/19 05:56:27;;;;;;;11.67;10.50;;;26.20;1.00;;;;;;5095564;28;20463;-70
2021/06/19 05:58:53;;;;;;;11.53;10.33;;;26.20;1.00;;;;;;5095651;28;20453;-70
2021/06/19 06:01:20;;;;;;;10.40;9.47;;;26.30;1.00;;;;;;5094985;28;20458;-69
2021/06/19 06:03:48;;;;;;;10.53;9.63;;;26.30;1.00;;;;;;5095507;28;20779;-69
2021/06/19 06:06:15;;;;;;;10.80;9.90;;;26.40;1.00;;;;;;5095452;28;20457;-69
2021/06/19 06:08:45;;;;;;;10.13;9.23;;;26.50;1.00;;;;;;5095271;28;20767;-68
2021/06/19 06:11:12;;;;;;;11.50;10.60;;;26.50;1.00;;;;;;5095251;28;20457;-69
2021/06/19 06:13:40;;;;;;;12.40;11.23;;;26.60;1.00;;;;;;5094964;28;20765;-69
2021/06/19 06:16:08;;;;;;;11.73;10.63;;;26.60;1.00;;;;;;5095155;28;20935;-69
2021/06/19 06:18:34;;;;;;;11.23;10.33;;;26.60;1.00;;;;;;5095367;28;20453;-69
2021/06/19 06:21:01;;;;;;;11.23;10.30;;;26.60;1.00;;;;;;5094805;28;20453;-69
2021/06/19 06:23:29;;;;;;;10.97;9.87;;;26.60;1.00;;;;;;5095122;28;20552;-69
2021/06/19 06:25:55;;;;;;;10.83;9.93;;;26.70;1.00;;;;;;5095143;28;20453;-70
2021/06/19 06:28:22;;;;;;;11.50;10.40;;;26.80;1.00;;;;;;5094982;28;20457;-69
2021/06/19 06:30:50;;;;;;;11.17;10.20;;;26.80;1.00;;;;;;5094984;28;20453;-69
2021/06/19 06:33:21;;;;;;;11.20;10.20;;;26.90;1.00;;;;;;5094595;28;20473;-69
2021/06/19 06:35:48;;;;;;;10.57;9.73;;;27.00;1.00;;;;;;5095231;28;20445;-69
2021/06/19 06:38:15;;;;;;;10.37;8.97;;;27.00;1.00;;;;;;5094827;28;20956;-69
2021/06/19 06:40:44;;;;;;;10.93;10.07;;;27.20;1.00;;;;;;5094398;28;20921;-69
2021/06/19 06:43:10;;;;;;;10.93;9.50;;;27.20;1.00;;;;;;5094876;28;20996;-69
2021/06/19 06:45:37;;;;;;;10.20;9.30;;;27.30;1.00;;;;;;5094718;28;20453;-68
2021/06/19 06:48:06;;;;;;;10.20;9.40;;;27.40;1.00;;;;;;5094676;28;20449;-69
2021/06/19 06:50:33;;;;;;;10.23;9.33;;;27.50;1.00;;;;;;5094423;28;20445;-69
2021/06/19 06:53:00;;;;;;;10.63;9.73;;;27.60;1.00;;;;;;5094748;28;20544;-69
2021/06/19 06:55:27;;;;;;;10.00;9.10;;;27.60;1.00;;;;;;5094648;28;20947;-69
2021/06/19 06:57:54;;;;;;;11.13;10.13;;;27.70;1.00;;;;;;5094586;28;20464;-69
2021/06/19 07:00:21;;;;;;;10.67;9.77;;;27.80;1.00;;;;;;5096620;28;20491;-70
2021/06/19 07:02:48;;;;;;;9.80;9.10;;;27.90;1.00;;;;;;5097710;28;20464;-69
2021/06/19 07:05:16;;;;;;;9.90;9.03;;;28.00;1.00;;;;;;5098037;28;20778;-69
2021/06/19 07:07:43;;;;;;;10.97;9.97;;;28.10;1.00;;;;;;5098099;28;20457;-69
2021/06/19 07:10:12;;;;;;;10.23;9.33;;;28.20;1.00;;;;;;5099215;28;20457;-69
2021/06/19 07:12:42;;;;;;;9.23;8.53;;;28.20;1.00;;;;;;5096797;28;20453;-69
2021/06/19 07:15:10;;;;;;;10.10;9.37;;;28.30;1.00;;;;;;5096395;28;20845;-70
2021/06/19 07:17:36;;;;;;;8.97;8.27;;;28.40;1.00;;;;;;5094904;28;20518;-69
2021/06/19 07:20:05;;;;;;;8.67;8.07;;;28.40;1.00;;;;;;5094297;28;20461;-69
2021/06/19 07:22:33;;;;;;;8.07;7.37;;;28.50;1.00;;;;;;5094371;28;20921;-69
2021/06/19 07:25:01;;;;;;;8.77;8.07;;;28.50;1.00;;;;;;5094381;28;20453;-69
2021/06/19 07:27:28;;;;;;;9.73;9.00;;;28.60;1.00;;;;;;5094089;28;20468;-69
2021/06/19 07:29:54;;;;;;;9.07;8.27;;;28.70;1.00;;;;;;5094307;28;20459;-69
2021/06/19 07:32:21;;;;;;;9.70;8.80;;;28.70;1.00;;;;;;5094431;28;20457;-70
2021/06/19 07:34:48;;;;;;;9.90;9.10;;;28.80;1.00;;;;;;5094350;28;20477;-69
2021/06/19 07:37:15;;;;;;;9.40;8.60;;;29.00;1.00;;;;;;5094338;28;20917;-69
2021/06/19 07:39:43;;;;;;;9.60;8.90;;;29.00;1.00;;;;;;5094543;28;20453;-69
2021/06/19 07:42:10;;;;;;;8.67;8.07;;;29.20;1.00;;;;;;5094610;28;20475;-69
2021/06/19 07:44:36;;;;;;;10.13;9.37;;;29.30;1.00;;;;;;5094879;28;20831;-70
2021/06/19 07:47:03;;;;;;;9.43;8.53;;;29.40;1.00;;;;;;5094310;28;20492;-69
2021/06/19 07:49:30;;;;;;;11.30;9.30;;;29.50;1.00;;;;;;5094200;28;20450;-70
2021/06/19 07:51:58;;;;;;;10.13;9.27;;;29.60;1.00;;;;;;5094240;28;20468;-69
2021/06/19 07:54:24;;;;;;;9.03;8.43;;;29.70;1.00;;;;;;5093846;28;20477;-69
2021/06/19 07:56:52;;;;;;;9.20;8.40;;;29.80;1.00;;;;;;5094432;28;20460;-69
2021/06/19 07:59:19;;;;;;;9.53;8.53;;;29.90;1.00;;;;;;5094192;28;20464;-69
2021/06/19 08:01:46;;;;;;;10.60;9.37;;;29.90;1.00;;;;;;5095892;28;20462;-69
2021/06/19 08:04:12;;;;;;;9.73;8.77;;;30.00;1.00;;;;;;5097830;28;20791;-70
2021/06/19 08:06:39;;;;;;;9.37;8.57;;;29.90;1.00;;;;;;5097383;28;20461;-69
2021/06/19 08:09:06;;;;;;;8.80;8.20;;;30.00;1.00;;;;;;5097885;28;20464;-71
2021/06/19 08:11:33;;;;;;;9.00;8.07;;;30.10;1.00;;;;;;5098001;28;20526;-71
2021/06/19 08:14:01;;;;;;;8.97;8.17;;;30.20;1.00;;;;;;5097441;28;20492;-70
2021/06/19 08:16:28;;;;;;;8.30;7.60;;;30.30;1.00;;;;;;5097243;28;20464;-70
2021/06/19 08:18:55;;;;;;;9.47;8.77;;;30.40;1.00;;;;;;5097552;28;20457;-70
2021/06/19 08:21:21;;;;;;;8.80;8.10;;;30.50;1.00;;;;;;5097522;28;20465;-72
2021/06/19 08:23:48;;;;;;;8.53;7.70;;;30.60;1.00;;;;;;5097418;28;20473;-70
2021/06/19 08:26:15;;;;;;;9.17;8.37;;;30.60;1.00;;;;;;5097348;28;20590;-70
2021/06/19 08:28:41;;;;;;;7.63;6.80;;;30.60;1.00;;;;;;5097200;28;20457;-70
2021/06/19 08:31:09;;;;;;;8.00;7.40;;;30.60;1.00;;;;;;5097192;28;20457;-70
2021/06/19 08:33:36;;;;;;;9.00;8.20;;;30.60;1.00;;;;;;5097108;28;20461;-70
2021/06/19 08:36:03;;;;;;;8.63;7.93;;;30.60;1.00;;;;;;5096781;28;20464;-70
2021/06/19 08:38:30;;;;;;;8.40;7.67;;;30.70;1.00;;;;;;5097365;28;20457;-70
2021/06/19 08:40:57;;;;;;;8.33;7.63;;;30.90;1.00;;;;;;5097087;28;20464;-75
2021/06/19 08:43:25;;;;;;;8.90;8.30;;;30.90;1.00;;;;;;5097127;28;20490;-70
2021/06/19 08:45:52;;;;;;;8.27;7.23;;;31.00;1.00;;;;;;5096724;28;20461;-70
2021/06/19 08:48:21;;;;;;;7.80;7.20;;;31.00;1.00;;;;;;5097021;28;20453;-70
2021/06/19 08:50:49;;;;;;;8.40;7.60;;;31.20;1.00;;;;;;5096755;28;20457;-70
2021/06/19 08:53:20;;;;;;;8.27;7.67;;;31.30;1.00;;;;;;5096900;28;20453;-70
2021/06/19 08:55:47;;;;;;;8.37;7.67;;;31.30;1.00;;;;;;5096820;28;20466;-69
2021/06/19 08:58:14;;;;;;;7.70;7.10;;;31.40;1.00;;;;;;5096667;28;20905;-69
2021/06/19 09:00:41;;;;;;;8.20;7.40;;;31.40;1.00;;;;;;5096322;28;20460;-69
2021/06/19 09:03:21;;;;;;;8.30;7.60;;;31.50;1.00;;;;;;5096491;28;20468;-69
2021/06/19 09:05:48;;;;;;;7.97;7.37;;;31.50;1.00;;;;;;5096432;28;20913;-69
2021/06/19 09:08:16;;;;;;;8.60;7.80;;;31.60;1.00;;;;;;5096399;28;20461;-70
2021/06/19 09:10:45;;;;;;;8.33;7.73;;;31.60;1.00;;;;;;5096456;28;20461;-70
2021/06/19 09:13:13;;;;;;;9.40;7.47;;;31.70;1.00;;;;;;5096052;28;20485;-70
2021/06/19 09:15:43;;;;;;;7.63;7.13;;;31.80;1.00;;;;;;5096091;28;20484;-70
2021/06/19 09:18:22;;;;;;;7.63;7.07;;;31.90;1.00;;;;;;5096262;28;20457;-70
2021/06/19 09:20:54;;;;;;;7.57;6.87;;;32.00;1.00;;;;;;5096827;28;20748;-70
2021/06/19 09:23:31;;;;;;;7.80;7.07;;;32.00;1.00;;;;;;5096684;28;20461;-70
2021/06/19 09:26:13;;;;;;;8.13;7.43;;;32.10;1.00;;;;;;5096726;28;20433;-70
2021/06/19 09:29:06;;;;;;;7.37;6.77;;;32.20;1.00;;;;;;5097022;28;20790;-71
2021/06/19 09:31:36;;;;;;;7.97;7.27;;;32.30;1.00;;;;;;5095937;28;20441;-70
2021/06/19 09:34:06;;;;;;;7.37;6.73;;;32.30;1.00;;;;;;5096390;28;20945;-69
2021/06/19 09:36:44;;;;;;;8.10;7.40;;;32.40;1.00;;;;;;5096125;28;20460;-69
2021/06/19 09:39:13;;;;;;;8.40;7.77;;;32.50;1.00;;;;;;5096198;28;20514;-69
2021/06/19 09:41:42;;;;;;;6.40;5.90;;;32.60;1.00;;;;;;5095421;28;20464;-69
2021/06/19 09:44:09;;;;;;;6.80;6.30;;;32.70;1.00;;;;;;5096178;28;20454;-70
2021/06/19 09:46:37;;;;;;;6.37;5.97;;;32.70;1.00;;;;;;5095721;28;20477;-69
2021/06/19 09:49:16;;;;;;;6.23;5.63;;;32.80;1.00;;;;;;5095881;28;20767;-70
2021/06/19 09:51:48;;;;;;;7.80;6.30;;;32.90;1.00;;;;;;5095866;28;20458;-70
2021/06/19 09:54:15;;;;;;;7.63;6.93;;;33.00;1.00;;;;;;5095880;28;20490;-70
2021/06/19 09:56:55;;;;;;;7.40;6.80;;;33.10;1.00;;;;;;5095848;28;20468;-70
2021/06/19 09:59:28;;;;;;;7.00;6.40;;;33.10;1.00;;;;;;5096092;28;20452;-70
2021/06/19 10:01:55;;;;;;;6.60;6.10;;;33.10;1.00;;;;;;5095890;28;20445;-70
2021/06/19 10:04:25;;;;;;;7.30;5.93;;;33.20;1.00;;;;;;5095576;28;20449;-70
2021/06/19 10:06:52;;;;;;;6.90;6.30;;;33.30;1.00;;;;;;5095524;28;20457;-70
2021/06/19 10:09:20;;;;;;;7.07;6.40;;;33.40;1.00;;;;;;5094963;28;20917;-69
2021/06/19 10:11:48;;;;;;;6.20;5.80;;;33.50;1.00;;;;;;5095640;28;20453;-70
2021/06/19 10:14:18;;;;;;;6.70;6.30;;;33.60;1.00;;;;;;5095299;28;20539;-69
2021/06/19 10:16:46;;;;;;;6.47;5.97;;;33.70;1.00;;;;;;5095838;28;20489;-69
2021/06/19 10:19:13;;;;;;;6.70;6.20;;;33.70;1.00;;;;;;5095422;28;20815;-69
2021/06/19 10:21:43;;;;;;;6.10;5.67;;;33.80;1.00;;;;;;5095395;28;20460;-69
2021/06/19 10:24:12;;;;;;;6.67;6.20;;;33.90;1.00;;;;;;5094629;28;20536;-70
2021/06/19 10:26:40;;;;;;;7.23;6.50;;;34.00;1.00;;;;;;5095395;28;20469;-71
2021/06/19 10:29:08;;;;;;;6.50;6.00;;;34.10;1.00;;;;;;5095114;28;20774;-70
2021/06/19 10:31:40;;;;;;;7.80;7.20;;;34.20;1.00;;;;;;5095407;28;20950;-70
2021/06/19 10:34:22;;;;;;;6.70;6.30;;;34.20;1.00;;;;;;5094820;28;20464;-69
2021/06/19 10:36:51;;;;;;;6.83;6.33;;;34.30;1.00;;;;;;5094847;28;20526;-70
2021/06/19 10:39:39;;;;;;;6.93;6.43;;;34.30;1.00;;;;;;5095142;28;20465;-70
2021/06/19 10:42:06;;;;;;;6.87;6.17;;;34.30;1.00;;;;;;5095067;28;20893;-70
2021/06/19 10:44:53;;;;;;;7.10;6.47;;;34.40;1.00;;;;;;5094927;28;20461;-70
2021/06/19 10:47:22;;;;;;;5.80;5.30;;;34.50;1.00;;;;;;5094646;28;20964;-69
2021/06/19 10:49:49;;;;;;;6.37;5.93;;;34.50;1.00;;;;;;5094598;28;20542;-70
2021/06/19 10:52:33;;;;;;;6.00;5.60;;;34.60;1.00;;;;;;5094957;28;20464;-69
2021/06/19 10:55:19;;;;;;;11.13;6.00;;;34.70;1.00;;;;;;5095238;28;20480;-69
2021/06/19 10:57:47;;;;;;;6.13;5.70;;;34.70;1.00;;;;;;5095327;28;20550;-70
2021/06/19 11:00:25;;;;;;;5.73;5.33;;;34.80;1.00;;;;;;5095078;28;20468;-70
2021/06/19 11:02:54;;;;;;;6.20;5.60;;;34.90;1.00;;;;;;5095503;28;20437;-69
2021/06/19 11:05:54;;;;;;;6.90;6.23;;;35.00;1.00;;;;;;5098440;28;20462;-69
2021/06/19 11:08:22;;;;;;;5.70;5.30;;;35.10;1.00;;;;;;5101663;28;20900;-70
2021/06/19 11:10:55;;;;;;;6.30;5.70;;;35.20;1.00;;;;;;5101010;28;20460;-70
2021/06/19 11:13:44;;;;;;;7.70;5.77;;;35.40;1.00;;;;;;5100670;28;20510;-69
2021/06/19 11:16:44;;;;;;;5.37;4.90;;;35.60;1.00;;;;;;5101302;28;20798;-70
2021/06/19 11:19:11;;;;;;;4.80;4.50;;;35.90;1.00;;;;;;5014796;28;20921;-70
2021/06/19 11:21:39;;;;;;;5.20;4.90;;;36.20;1.00;;;;;;5078442;28;20969;-70
2021/06/19 11:24:11;;;;;;;5.83;5.43;;;36.70;1.00;;;;;;5096880;28;20449;-70
2021/06/19 11:26:52;;;;;;;6.03;5.50;;;37.20;1.00;;;;;;5095270;28;20457;-70
2021/06/19 11:29:38;;;;;;;5.20;4.80;;;37.80;1.00;;;;;;5095364;28;20452;-70
2021/06/19 11:32:23;;;;;;;5.80;5.40;;;38.20;1.00;;;;;;5095063;28;20457;-70
2021/06/19 11:34:51;;;;;;;5.97;5.33;;;38.20;1.00;;;;;;5094439;28;20530;-70
2021/06/19 11:37:18;;;;;;;8.60;5.50;;;38.20;1.00;;;;;;5097257;28;20819;-70
2021/06/19 11:39:46;;;;;;;5.60;5.20;;;38.40;1.00;;;;;;5099049;28;20477;-70
2021/06/19 11:42:13;;;;;;;5.93;5.53;;;38.30;1.00;;;;;;5098053;28;20475;-70
2021/06/19 11:44:42;;;;;;;15.03;5.40;;;38.20;1.00;;;;;;5098604;28;20453;-70
2021/06/19 11:47:09;;;;;;;6.20;5.80;;;38.20;1.00;;;;;;5097988;28;20507;-70
2021/06/19 11:49:43;;;;;;;6.07;5.67;;;38.50;1.00;;;;;;5098266;28;20485;-70
2021/06/19 11:52:13;;;;;;;9.20;6.37;;;38.50;1.00;;;;;;5098271;28;20791;-69
2021/06/19 11:54:43;;;;;;;6.30;5.80;;;38.80;1.00;;;;;;5097930;28;20495;-70
2021/06/19 11:57:23;;;;;;;7.53;5.03;;;39.20;1.00;;;;;;5098398;28;20441;-70
2021/06/19 12:00:06;;;;;;;5.93;5.47;;;39.30;1.00;;;;;;5097868;28;20437;-70
2021/06/19 12:02:33;;;;;;;5.90;5.33;;;39.40;1.00;;;;;;5095627;28;20467;-69
2021/06/19 12:05:14;;;;;;;5.13;4.83;;;39.50;1.00;;;;;;5097999;28;20450;-69
2021/06/19 12:07:40;;;;;;;5.57;5.17;;;39.30;1.00;;;;;;5097403;28;20433;-70
2021/06/19 12:10:22;;;;;;;5.60;5.17;;;39.10;1.00;;;;;;5097835;28;20545;-69
2021/06/19 12:12:58;;;;;;;5.57;5.17;;;38.80;1.00;;;;;;5098097;28;20505;-69
2021/06/19 12:15:24;;;;;;;6.10;5.60;;;38.60;1.00;;;;;;5097998;28;20468;-69
2021/06/19 12:17:51;;;;;;;6.20;5.60;;;38.50;1.00;;;;;;5097486;28;20914;-69
2021/06/19 12:20:21;;;;;;;6.40;5.90;;;38.20;1.00;;;;;;5097537;28;20457;-69
2021/06/19 12:22:48;;;;;;;6.63;6.03;;;38.00;1.00;;;;;;5097483;28;20461;-69
2021/06/19 12:25:27;;;;;;;6.80;6.10;;;37.90;1.00;;;;;;5097335;28;20469;-69
2021/06/19 12:27:54;;;;;;;6.90;6.30;;;37.80;1.00;;;;;;5097869;28;20438;-69
2021/06/19 12:30:23;;;;;;;7.03;6.07;;;37.60;1.00;;;;;;5097758;28;20457;-69
2021/06/19 12:32:50;;;;;;;5.63;5.23;;;37.60;1.00;;;;;;5097604;28;20457;-69
2021/06/19 12:35:19;;;;;;;6.43;5.70;;;37.70;1.00;;;;;;5096892;28;20477;-69
2021/06/19 12:37:51;;;;;;;6.13;5.53;;;38.00;1.00;;;;;;5096728;28;20914;-70
2021/06/19 12:40:26;;;;;;;6.20;5.70;;;38.30;1.00;;;;;;5097746;28;20430;-71
2021/06/19 12:43:05;;;;;;;7.50;6.03;;;38.50;1.00;;;;;;5097533;28;20449;-69
2021/06/19 12:45:35;;;;;;;6.40;5.80;;;38.90;1.00;;;;;;5097151;28;20494;-70
2021/06/19 12:48:04;;;;;;;6.13;5.40;;;39.60;1.00;;;;;;5096203;28;20481;-69
2021/06/19 12:50:40;;;;;;;5.90;5.50;;;40.20;1.00;;;;;;5096667;28;20453;-70
2021/06/19 12:53:09;;;;;;;6.27;5.73;;;40.80;1.00;;;;;;5097243;28;20464;-69
2021/06/19 12:55:38;;;;;;;11.10;5.83;;;41.40;1.00;;;;;;5096951;28;20485;-70
2021/06/19 12:58:13;;;;;;;6.50;6.10;;;42.00;1.00;;;;;;5097396;28;20464;-70
2021/06/19 13:00:44;;;;;;;5.73;5.17;;;42.50;1.00;;;;;;5097186;28;20456;-70
2021/06/19 13:03:13;;;;;;;6.03;5.47;;;42.90;1.00;;;;;;5096971;28;20959;-69